Time;durP1;ratioP1;P1;durP2;ratioP2;P2;SDS_P1;SDS_P2;PMS_P1;PMS_P2;Temp;Humidity;BMP_temperature;BMP_pressure;BME280_temperature;BME280_humidity;BME280_pressure;Samples;Min_cycle;Max_cycle;Signal;HPM_P1;HPM_P2
2022/03/10 00:00:42;;;;;;;16.53;13.43;;;;;20.90;101290.00;;;;2070395;28;20218;-50
2022/03/10 00:01:42;;;;;;;15.00;13.60;;;;;20.70;101294.00;;;;2069914;28;20245;-50
2022/03/10 00:02:43;;;;;;;13.77;12.37;;;;;21.00;101288.00;;;;2069862;28;20225;-50
2022/03/10 00:03:43;;;;;;;14.27;12.80;;;;;21.00;101282.00;;;;2074607;28;20218;-50
2022/03/10 00:04:43;;;;;;;14.80;13.40;;;;;20.90;101287.00;;;;2078770;28;20210;-50
2022/03/10 00:05:44;;;;;;;14.93;13.33;;;;;20.90;101294.00;;;;2078389;28;20213;-49
2022/03/10 00:06:45;;;;;;;13.33;12.03;;;;;20.90;101287.00;;;;2078797;28;20226;-50
2022/03/10 00:07:45;;;;;;;12.35;11.15;;;;;20.90;101290.00;;;;2078154;28;20213;-49
2022/03/10 00:08:46;;;;;;;13.90;12.50;;;;;20.90;101292.00;;;;2073219;28;20329;-50
2022/03/10 00:09:47;;;;;;;13.47;12.17;;;;;20.90;101298.00;;;;2070805;28;20220;-50
2022/03/10 00:10:47;;;;;;;13.77;12.07;;;;;20.90;101291.00;;;;2070741;28;20464;-50
2022/03/10 00:11:48;;;;;;;13.37;11.70;;;;;20.90;101289.00;;;;2071338;28;20218;-50
2022/03/10 00:12:52;;;;;;;13.40;12.13;;;;;20.90;101292.00;;;;2070698;28;20221;-50
2022/03/10 00:13:52;;;;;;;11.82;10.73;;;;;20.90;101294.00;;;;2072772;28;20210;-50
2022/03/10 00:14:52;;;;;;;12.37;11.17;;;;;20.90;101294.00;;;;2078588;28;20214;-49
2022/03/10 00:15:52;;;;;;;14.73;11.80;;;;;20.90;101296.00;;;;2077916;28;20260;-50
2022/03/10 00:16:53;;;;;;;13.27;11.93;;;;;20.80;101290.00;;;;2078545;28;20217;-50
2022/03/10 00:17:53;;;;;;;14.00;12.13;;;;;20.80;101292.00;;;;2078178;28;20216;-50
2022/03/10 00:18:54;;;;;;;12.17;11.03;;;;;20.80;101298.00;;;;2077214;28;20214;-50
2022/03/10 00:19:54;;;;;;;12.53;11.30;;;;;20.80;101299.00;;;;2078650;28;20583;-50
2022/03/10 00:20:54;;;;;;;11.87;10.73;;;;;20.80;101294.00;;;;2075269;28;20290;-50
2022/03/10 00:21:55;;;;;;;12.10;10.90;;;;;20.80;101294.00;;;;2078735;28;20209;-50
2022/03/10 00:22:56;;;;;;;11.27;10.07;;;;;20.80;101297.00;;;;2078212;28;20253;-50
2022/03/10 00:23:57;;;;;;;11.50;10.40;;;;;20.80;101295.00;;;;2078750;28;20719;-50
2022/03/10 00:24:57;;;;;;;12.87;11.57;;;;;20.80;101291.00;;;;2078507;28;20232;-50
2022/03/10 00:25:58;;;;;;;11.40;10.40;;;;;20.80;101302.00;;;;2078180;28;20217;-50
2022/03/10 00:26:58;;;;;;;12.47;11.17;;;;;20.80;101271.00;;;;2078269;28;20218;-50
2022/03/10 00:27:58;;;;;;;11.80;10.60;;;;;20.80;101305.00;;;;2078547;28;20221;-50
2022/03/10 00:28:59;;;;;;;11.00;9.90;;;;;20.80;101297.00;;;;2078521;28;20310;-50
2022/03/10 00:29:59;;;;;;;11.50;10.40;;;;;20.80;101302.00;;;;2078698;28;20217;-50
2022/03/10 00:30:59;;;;;;;12.03;10.93;;;;;20.70;101300.00;;;;2078769;28;20214;-50
2022/03/10 00:32:01;;;;;;;12.00;10.80;;;;;20.70;101307.00;;;;2078267;28;20977;-50
2022/03/10 00:33:01;;;;;;;11.50;10.40;;;;;20.70;101307.00;;;;2072853;28;20230;-50
2022/03/10 00:34:02;;;;;;;11.70;10.60;;;;;20.70;101312.00;;;;2070005;28;20248;-50
2022/03/10 00:35:03;;;;;;;10.47;9.53;;;;;20.70;101310.00;;;;2072436;28;20705;-50
2022/03/10 00:36:03;;;;;;;11.67;10.57;;;;;20.70;101309.00;;;;2070807;28;20222;-50
2022/03/10 00:37:04;;;;;;;11.50;10.30;;;;;20.70;101317.00;;;;2068943;28;20324;-50
2022/03/10 00:38:04;;;;;;;12.77;11.43;;;;;20.70;101322.00;;;;2070020;28;20214;-49
2022/03/10 00:39:04;;;;;;;10.63;9.63;;;;;20.70;101324.00;;;;2069864;28;20852;-55
2022/03/10 00:40:06;;;;;;;11.33;9.50;;;;;20.70;101323.00;;;;2070640;28;20793;-53
2022/03/10 00:41:06;;;;;;;11.13;10.10;;;;;20.70;101326.00;;;;2070164;28;20756;-50
2022/03/10 00:42:06;;;;;;;10.77;9.77;;;;;20.70;101331.00;;;;2069847;28;20217;-50
2022/03/10 00:43:11;;;;;;;10.73;9.70;;;;;20.70;101332.00;;;;2069472;28;20210;-50
2022/03/10 00:44:11;;;;;;;11.40;10.30;;;;;20.70;101324.00;;;;2075826;28;20246;-49
2022/03/10 00:45:13;;;;;;;10.37;9.37;;;;;20.70;101323.00;;;;2076817;28;20816;-50
2022/03/10 00:46:13;;;;;;;11.00;10.00;;;;;20.70;101332.00;;;;2077609;28;20237;-49
2022/03/10 00:47:13;;;;;;;10.07;9.13;;;;;20.70;101327.00;;;;2077613;28;20212;-51
2022/03/10 00:48:14;;;;;;;9.80;8.87;;;;;20.60;101332.00;;;;2077880;28;20660;-50
2022/03/10 00:49:14;;;;;;;10.43;9.43;;;;;20.60;101320.00;;;;2078282;28;20689;-50
2022/03/10 00:50:15;;;;;;;11.10;10.00;;;;;20.60;101330.00;;;;2078831;28;20205;-50
2022/03/10 00:51:15;;;;;;;10.30;9.40;;;;;20.70;101313.00;;;;2074963;28;20206;-50
2022/03/10 00:52:15;;;;;;;10.87;9.87;;;;;20.70;101315.00;;;;2078363;28;20206;-50
2022/03/10 00:53:16;;;;;;;9.87;8.97;;;;;20.70;101319.00;;;;2071355;28;20233;-50
2022/03/10 00:54:16;;;;;;;10.77;9.57;;;;;20.70;101315.00;;;;2071671;28;20237;-50
2022/03/10 00:55:17;;;;;;;9.80;8.90;;;;;20.70;101337.00;;;;2076630;28;20209;-50
2022/03/10 00:56:18;;;;;;;10.40;9.50;;;;;20.60;101317.00;;;;2070092;28;20214;-50
2022/03/10 00:57:18;;;;;;;10.17;9.17;;;;;20.60;101321.00;;;;2069657;28;20301;-50
2022/03/10 00:58:19;;;;;;;9.90;9.00;;;;;20.60;101318.00;;;;2069947;28;20221;-50
2022/03/10 00:59:19;;;;;;;9.87;8.97;;;;;20.60;101312.00;;;;2070146;28;20215;-50
2022/03/10 01:00:21;;;;;;;10.03;9.13;;;;;20.60;101314.00;;;;2070590;28;20202;-50
2022/03/10 01:01:22;;;;;;;9.70;8.82;;;;;20.60;101310.00;;;;2069868;28;20213;-50
2022/03/10 01:02:22;;;;;;;10.90;9.80;;;;;20.60;101316.00;;;;2078631;28;20212;-50
2022/03/10 01:03:23;;;;;;;10.33;9.43;;;;;20.60;101319.00;;;;2078522;28;20236;-50
2022/03/10 01:04:23;;;;;;;10.52;9.52;;;;;20.60;101317.00;;;;2078603;28;20727;-50
2022/03/10 01:05:24;;;;;;;10.83;9.73;;;;;20.60;101323.00;;;;2070119;28;20206;-49
2022/03/10 01:06:24;;;;;;;9.80;8.80;;;;;20.60;101318.00;;;;2069915;28;20221;-50
2022/03/10 01:07:24;;;;;;;10.40;9.50;;;;;20.60;101323.00;;;;2069787;28;20199;-49
2022/03/10 01:08:25;;;;;;;10.33;9.43;;;;;20.60;101311.00;;;;2072527;28;20211;-50
2022/03/10 01:09:26;;;;;;;9.80;8.90;;;;;20.60;101316.00;;;;2074894;28;20210;-50
2022/03/10 01:10:26;;;;;;;9.10;8.27;;;;;20.60;101320.00;;;;2078573;28;20217;-49
2022/03/10 01:11:27;;;;;;;10.60;9.60;;;;;20.60;101317.00;;;;2078709;28;20213;-49
2022/03/10 01:12:27;;;;;;;15.10;9.50;;;;;20.60;101309.00;;;;2075203;28;20256;-50
2022/03/10 01:13:27;;;;;;;10.00;9.10;;;;;20.60;101304.00;;;;2070362;28;20225;-49
2022/03/10 01:14:28;;;;;;;10.20;9.23;;;;;20.50;101318.00;;;;2069841;28;20225;-49
2022/03/10 01:15:28;;;;;;;10.20;9.30;;;;;20.60;101311.00;;;;2069976;28;20238;-49
2022/03/10 01:16:28;;;;;;;9.83;8.93;;;;;20.50;101301.00;;;;2070189;28;20210;-49
2022/03/10 01:17:29;;;;;;;9.73;8.83;;;;;20.50;101268.00;;;;2069864;28;20218;-50
2022/03/10 01:18:29;;;;;;;9.47;8.67;;;;;20.50;101306.00;;;;2070409;28;25875;-50
2022/03/10 01:19:29;;;;;;;10.17;9.17;;;;;20.50;101300.00;;;;2070213;28;20886;-50
2022/03/10 01:20:30;;;;;;;9.83;8.93;;;;;20.50;101302.00;;;;2072243;28;20645;-50
2022/03/10 01:21:30;;;;;;;10.17;9.27;;;;;20.50;101306.00;;;;2078646;28;20677;-49
2022/03/10 01:22:30;;;;;;;10.27;9.27;;;;;20.50;101300.00;;;;2078548;28;20271;-49
2022/03/10 01:23:31;;;;;;;10.20;9.20;;;;;20.50;101304.00;;;;2078676;28;20221;-49
2022/03/10 01:24:31;;;;;;;10.60;9.60;;;;;20.50;101303.00;;;;2078449;28;20267;-50
2022/03/10 01:25:31;;;;;;;9.30;8.50;;;;;20.50;101300.00;;;;2078365;28;20209;-49
2022/03/10 01:26:32;;;;;;;9.70;8.90;;;;;20.50;101309.00;;;;2078154;28;20252;-50
2022/03/10 01:27:33;;;;;;;9.00;8.20;;;;;20.50;101305.00;;;;2076719;28;20214;-50
2022/03/10 01:28:33;;;;;;;9.40;8.60;;;;;20.50;101305.00;;;;2078414;28;20224;-49
2022/03/10 01:29:33;;;;;;;9.73;8.63;;;;;20.50;101308.00;;;;2072012;28;20217;-49
2022/03/10 01:30:34;;;;;;;9.93;8.93;;;;;20.50;101303.00;;;;2070096;28;20214;-49
2022/03/10 01:31:35;;;;;;;9.53;8.63;;;;;20.50;101304.00;;;;2070251;28;20833;-49
2022/03/10 01:32:35;;;;;;;9.40;8.55;;;;;20.50;101304.00;;;;2070419;28;20272;-49
2022/03/10 01:33:36;;;;;;;10.40;9.47;;;;;20.50;101299.00;;;;2070149;28;20617;-50
2022/03/10 01:34:36;;;;;;;9.63;8.73;;;;;20.50;101296.00;;;;2070231;28;20206;-50
2022/03/10 01:35:36;;;;;;;9.83;8.90;;;;;20.50;101295.00;;;;2069543;28;20269;-50
2022/03/10 01:36:37;;;;;;;9.83;8.73;;;;;20.40;101288.00;;;;2070230;28;20222;-50
2022/03/10 01:37:37;;;;;;;9.40;8.50;;;;;20.40;101291.00;;;;2070406;28;20292;-49
2022/03/10 01:38:39;;;;;;;9.90;9.00;;;;;20.40;101299.00;;;;2070073;28;20284;-50
2022/03/10 01:39:40;;;;;;;9.43;8.52;;;;;20.40;101293.00;;;;2068836;28;20690;-50
2022/03/10 01:40:40;;;;;;;9.50;8.60;;;;;20.50;101292.00;;;;2069275;28;20211;-49
2022/03/10 01:41:40;;;;;;;9.80;8.90;;;;;20.40;101293.00;;;;2070214;28;20214;-50
2022/03/10 01:42:41;;;;;;;10.30;9.40;;;;;20.40;101298.00;;;;2070435;28;20217;-50
2022/03/10 01:44:07;;;;;;;9.17;8.37;;;;;20.40;101301.00;;;;2070320;28;20225;-49
2022/03/10 01:45:07;;;;;;;10.73;9.73;;;;;20.40;101296.00;;;;2074148;28;20214;-49
2022/03/10 01:46:08;;;;;;;10.40;9.40;;;;;20.40;101303.00;;;;2077406;28;20221;-49
2022/03/10 01:47:10;;;;;;;10.70;9.70;;;;;20.40;101289.00;;;;2075139;28;20458;-50
2022/03/10 01:48:10;;;;;;;9.68;8.88;;;;;20.40;101300.00;;;;2076424;28;20697;-50
2022/03/10 01:49:11;;;;;;;10.00;9.10;;;;;20.40;101301.00;;;;2078067;28;20272;-50
2022/03/10 01:50:12;;;;;;;9.37;8.57;;;;;20.40;101306.00;;;;2078497;28;20233;-50
2022/03/10 01:51:13;;;;;;;9.25;8.45;;;;;20.40;101299.00;;;;2078340;28;20705;-50
2022/03/10 01:52:14;;;;;;;9.47;8.57;;;;;20.40;101286.00;;;;2078440;28;20213;-49
2022/03/10 01:53:14;;;;;;;9.75;8.80;;;;;20.40;101303.00;;;;2076503;28;20320;-50
2022/03/10 01:54:15;;;;;;;10.37;9.37;;;;;20.40;101296.00;;;;2067109;28;20702;-49
2022/03/10 01:55:15;;;;;;;9.60;8.73;;;;;20.40;101300.00;;;;2077729;28;20214;-50
2022/03/10 01:56:18;;;;;;;11.13;9.13;;;;;20.40;101289.00;;;;2071441;28;20214;-49
2022/03/10 01:57:19;;;;;;;9.15;8.27;;;;;20.40;101295.00;;;;2070315;28;20214;-50
2022/03/10 01:58:19;;;;;;;9.37;8.60;;;;;20.30;101300.00;;;;2071938;28;20214;-50
2022/03/10 01:59:20;;;;;;;9.63;8.73;;;;;20.40;101293.00;;;;2068109;28;20210;-50
2022/03/10 02:00:20;;;;;;;10.17;9.17;;;;;20.40;101293.00;;;;2070498;28;20237;-50
2022/03/10 02:01:20;;;;;;;9.23;8.33;;;;;20.40;101291.00;;;;2071059;28;20213;-50
2022/03/10 02:02:21;;;;;;;9.90;9.00;;;;;20.40;101300.00;;;;2070746;28;20242;-50
2022/03/10 02:03:21;;;;;;;9.80;8.80;;;;;20.40;101286.00;;;;2071134;28;20582;-50
2022/03/10 02:04:22;;;;;;;10.73;9.67;;;;;20.40;101294.00;;;;2071260;28;20317;-50
2022/03/10 02:05:22;;;;;;;9.40;8.60;;;;;20.40;101296.00;;;;2065623;28;20292;-50
2022/03/10 02:06:22;;;;;;;10.07;9.17;;;;;20.30;101294.00;;;;2079130;28;20456;-49
2022/03/10 02:10:18;;;;;;;9.63;8.82;;;;;20.30;101305.00;;;;2074552;28;20206;-50
2022/03/10 02:11:19;;;;;;;10.55;9.32;;;;;20.30;101301.00;;;;2076573;28;20320;-51
2022/03/10 02:12:19;;;;;;;9.03;8.23;;;;;20.30;101304.00;;;;2076529;28;20263;-50
2022/03/10 02:13:20;;;;;;;10.37;9.37;;;;;20.30;101299.00;;;;2069798;28;20214;-50
2022/03/10 02:18:20;;;;;;;9.93;8.98;;;;;20.30;101306.00;;;;2070196;28;20234;-53
2022/03/10 02:19:20;;;;;;;10.20;9.23;;;;;20.20;101298.00;;;;2071552;28;20214;-55
2022/03/10 02:20:20;;;;;;;8.70;7.90;;;;;20.30;101304.00;;;;2071234;28;20219;-52
2022/03/10 02:21:21;;;;;;;9.50;8.60;;;;;20.30;101302.00;;;;2071563;28;20244;-52
2022/03/10 02:22:22;;;;;;;10.17;9.00;;;;;20.30;101238.00;;;;2071620;28;20214;-50
2022/03/10 02:23:23;;;;;;;9.85;8.77;;;;;20.20;101298.00;;;;2076045;28;20206;-50
2022/03/10 02:24:24;;;;;;;10.00;9.13;;;;;20.20;101299.00;;;;2079370;28;20249;-50
2022/03/10 02:25:25;;;;;;;10.40;9.40;;;;;20.30;101298.00;;;;2078698;28;20213;-49
2022/03/10 02:26:25;;;;;;;9.80;8.83;;;;;20.30;101295.00;;;;2079042;28;20217;-49
2022/03/10 02:27:26;;;;;;;9.30;8.50;;;;;20.20;101291.00;;;;2079284;28;20205;-50
2022/03/10 02:28:27;;;;;;;9.40;8.50;;;;;20.20;101296.00;;;;2079781;28;20222;-50
2022/03/10 02:29:27;;;;;;;9.93;9.13;;;;;20.20;101293.00;;;;2079433;28;20624;-50
2022/03/10 02:30:29;;;;;;;9.20;8.40;;;;;20.20;101288.00;;;;2070582;28;20252;-50
2022/03/10 02:31:29;;;;;;;9.88;8.98;;;;;20.20;101292.00;;;;2070938;28;20218;-49
2022/03/10 02:32:29;;;;;;;9.50;8.60;;;;;20.20;101291.00;;;;2078793;28;20761;-50
2022/03/10 02:33:30;;;;;;;9.00;8.20;;;;;20.20;101288.00;;;;2079814;28;20882;-50
2022/03/10 02:34:30;;;;;;;9.97;8.80;;;;;20.20;101290.00;;;;2079479;28;20731;-49
2022/03/10 02:35:30;;;;;;;9.30;8.50;;;;;20.20;101286.00;;;;2078728;28;20705;-50
2022/03/10 02:36:31;;;;;;;10.27;9.30;;;;;20.20;101292.00;;;;2079582;28;20224;-50
2022/03/10 02:37:31;;;;;;;9.90;9.00;;;;;20.20;101283.00;;;;2074606;28;20209;-50
2022/03/10 02:38:31;;;;;;;9.63;8.70;;;;;20.20;101296.00;;;;2074104;28;20203;-50
2022/03/10 02:39:32;;;;;;;9.60;8.80;;;;;20.20;101286.00;;;;2071650;28;20203;-50
2022/03/10 02:40:32;;;;;;;9.73;8.83;;;;;20.20;101284.00;;;;2071317;28;20210;-50
2022/03/10 02:41:33;;;;;;;9.87;8.90;;;;;20.20;101279.00;;;;2072510;28;20248;-50
2022/03/10 02:42:34;;;;;;;9.80;8.90;;;;;20.20;101278.00;;;;2071556;28;20221;-50
2022/03/10 02:43:34;;;;;;;9.70;8.80;;;;;20.20;101278.00;;;;2071018;28;20706;-50
2022/03/10 02:44:39;;;;;;;9.97;8.73;;;;;20.20;101275.00;;;;2069724;28;20265;-50
2022/03/10 02:45:40;;;;;;;10.18;9.18;;;;;20.20;101278.00;;;;2076246;28;20222;-49
2022/03/10 02:46:40;;;;;;;9.70;8.80;;;;;20.20;101285.00;;;;2070902;28;20309;-49
2022/03/10 02:47:40;;;;;;;9.60;8.70;;;;;20.20;101273.00;;;;2070947;28;20612;-49
2022/03/10 02:48:41;;;;;;;8.97;8.10;;;;;20.20;101278.00;;;;2070994;28;20661;-49
2022/03/10 02:49:41;;;;;;;9.67;8.87;;;;;20.20;101280.00;;;;2070338;28;20350;-49
2022/03/10 02:50:42;;;;;;;9.73;8.87;;;;;20.10;101266.00;;;;2071446;28;20600;-49
2022/03/10 02:51:43;;;;;;;9.85;8.82;;;;;20.20;101274.00;;;;2070594;28;20228;-49
2022/03/10 02:52:44;;;;;;;9.70;8.80;;;;;20.10;101267.00;;;;2070657;28;20226;-50
2022/03/10 02:53:44;;;;;;;9.73;8.90;;;;;20.20;101270.00;;;;2071302;28;20226;-49
2022/03/10 02:54:44;;;;;;;10.03;9.03;;;;;20.20;101271.00;;;;2073147;28;20230;-49
2022/03/10 02:55:45;;;;;;;9.83;9.00;;;;;20.10;101265.00;;;;2069869;28;20230;-49
2022/03/10 02:56:45;;;;;;;10.13;9.20;;;;;20.10;101266.00;;;;2070463;28;20229;-49
2022/03/10 02:57:46;;;;;;;10.33;9.43;;;;;20.10;101277.00;;;;2070046;28;20218;-49
2022/03/10 02:58:46;;;;;;;10.13;9.23;;;;;20.10;101270.00;;;;2071461;28;20250;-50
2022/03/10 02:59:46;;;;;;;9.60;8.67;;;;;20.20;101269.00;;;;2070943;28;20653;-50
2022/03/10 03:00:48;;;;;;;9.63;8.73;;;;;20.10;101264.00;;;;2070469;28;20690;-49
2022/03/10 03:01:49;;;;;;;10.25;9.27;;;;;20.10;101273.00;;;;2070373;28;20210;-49
2022/03/10 03:02:49;;;;;;;9.73;8.83;;;;;20.10;101265.00;;;;2070561;28;20280;-50
2022/03/10 03:03:50;;;;;;;10.07;9.10;;;;;20.10;101265.00;;;;2070305;28;20492;-49
2022/03/10 03:04:50;;;;;;;9.70;8.80;;;;;20.10;101270.00;;;;2070922;28;20210;-49
2022/03/10 03:05:51;;;;;;;9.97;9.10;;;;;20.10;101271.00;;;;2069954;28;20214;-49
2022/03/10 03:06:51;;;;;;;10.53;9.63;;;;;20.10;101269.00;;;;2070086;28;20633;-49
2022/03/10 03:07:51;;;;;;;9.50;8.60;;;;;20.10;101271.00;;;;2070905;28;20211;-49
2022/03/10 03:08:52;;;;;;;10.00;9.00;;;;;20.10;101275.00;;;;2071574;28;20233;-49
2022/03/10 03:09:52;;;;;;;9.67;8.67;;;;;20.10;101273.00;;;;2070846;28;20245;-50
2022/03/10 03:10:52;;;;;;;10.57;9.57;;;;;20.10;101273.00;;;;2071301;28;20211;-50
2022/03/10 03:11:53;;;;;;;9.00;8.10;;;;;20.00;101276.00;;;;2072584;28;20218;-49
2022/03/10 03:12:53;;;;;;;9.37;8.57;;;;;20.00;101271.00;;;;2070527;28;20249;-49
2022/03/10 03:13:54;;;;;;;10.20;9.20;;;;;20.00;101277.00;;;;2076674;28;20221;-49
2022/03/10 03:14:54;;;;;;;10.50;9.50;;;;;20.10;101278.00;;;;2079167;28;20221;-50
2022/03/10 03:15:54;;;;;;;9.13;8.33;;;;;20.00;101277.00;;;;2078732;28;20303;-50
2022/03/10 03:16:58;;;;;;;10.37;9.00;;;;;20.00;101280.00;;;;2077985;28;20264;-49
2022/03/10 03:17:58;;;;;;;9.52;8.57;;;;;20.10;101276.00;;;;2078619;28;20221;-50
2022/03/10 03:18:59;;;;;;;9.47;8.57;;;;;20.00;101277.00;;;;2079028;28;20205;-54
2022/03/10 03:20:00;;;;;;;9.95;9.15;;;;;20.00;101275.00;;;;2078195;28;20359;-50
2022/03/10 03:21:00;;;;;;;10.53;9.57;;;;;20.00;101280.00;;;;2079324;28;20642;-50
2022/03/10 03:22:00;;;;;;;10.40;9.40;;;;;20.00;101287.00;;;;2078957;28;20633;-50
2022/03/10 03:23:01;;;;;;;9.23;8.40;;;;;20.00;101288.00;;;;2078732;28;20316;-50
2022/03/10 03:24:01;;;;;;;9.10;8.30;;;;;20.00;101288.00;;;;2078716;28;20214;-50
2022/03/10 03:25:01;;;;;;;9.17;8.37;;;;;20.00;101299.00;;;;2078437;28;20271;-50
2022/03/10 03:26:02;;;;;;;9.00;8.20;;;;;20.10;101287.00;;;;2077948;28;20731;-51
2022/03/10 03:27:02;;;;;;;10.33;9.43;;;;;20.00;101290.00;;;;2078532;28;20693;-51
2022/03/10 03:28:02;;;;;;;8.87;8.17;;;;;20.00;101289.00;;;;2078167;28;20212;-50
2022/03/10 03:29:03;;;;;;;9.33;8.47;;;;;20.00;101294.00;;;;2077817;28;20634;-50
2022/03/10 03:30:05;;;;;;;9.60;8.80;;;;;20.00;101291.00;;;;2078803;28;20227;-49
2022/03/10 03:31:06;;;;;;;9.27;8.57;;;;;20.00;101292.00;;;;2078561;28;20267;-49
2022/03/10 03:32:06;;;;;;;9.83;8.93;;;;;20.00;101295.00;;;;2078539;28;20290;-50
2022/03/10 03:33:06;;;;;;;9.57;8.67;;;;;20.00;101293.00;;;;2077964;28;20232;-49
2022/03/10 03:34:10;;;;;;;9.33;8.43;;;;;20.00;101296.00;;;;2070137;28;20217;-50
2022/03/10 03:35:10;;;;;;;9.13;8.23;;;;;20.00;101300.00;;;;2078557;28;20286;-49
2022/03/10 03:36:11;;;;;;;9.00;8.20;;;;;20.00;101297.00;;;;2077917;28;20319;-49
2022/03/10 03:37:11;;;;;;;9.60;8.73;;;;;20.00;101292.00;;;;2078242;28;20209;-50
2022/03/10 03:38:11;;;;;;;10.03;9.03;;;;;20.00;101297.00;;;;2077914;28;20205;-49
2022/03/10 03:39:13;;;;;;;9.60;8.70;;;;;20.00;101301.00;;;;2078697;28;20202;-50
2022/03/10 03:40:13;;;;;;;9.18;8.38;;;;;20.00;101294.00;;;;2078467;28;20209;-50
2022/03/10 03:41:13;;;;;;;9.53;8.63;;;;;20.00;101294.00;;;;2078664;28;20217;-50
2022/03/10 03:42:13;;;;;;;9.83;8.93;;;;;19.90;101290.00;;;;2073881;28;20209;-49
2022/03/10 03:43:14;;;;;;;9.20;8.40;;;;;20.00;101294.00;;;;2083863;28;20232;-49
2022/03/10 03:44:14;;;;;;;9.60;8.70;;;;;19.90;101288.00;;;;2072928;28;20214;-49
2022/03/10 03:45:15;;;;;;;9.70;8.80;;;;;19.90;101296.00;;;;2070445;28;20702;-50
2022/03/10 03:46:16;;;;;;;8.70;7.90;;;;;19.90;101295.00;;;;2069828;28;20216;-49
2022/03/10 03:47:16;;;;;;;9.63;8.73;;;;;20.00;101296.00;;;;2071560;28;20217;-50
2022/03/10 03:48:16;;;;;;;9.83;8.93;;;;;20.00;101237.00;;;;2078285;28;20217;-49
2022/03/10 03:49:17;;;;;;;9.20;8.40;;;;;19.90;101300.00;;;;2078377;28;20222;-49
2022/03/10 03:50:17;;;;;;;9.83;8.83;;;;;19.90;101298.00;;;;2078489;28;20221;-50
2022/03/10 03:51:17;;;;;;;9.63;8.67;;;;;19.90;101293.00;;;;2078212;28;20217;-49
2022/03/10 03:52:18;;;;;;;9.77;8.80;;;;;20.00;101299.00;;;;2078525;28;20233;-50
2022/03/10 03:53:18;;;;;;;10.07;9.27;;;;;20.00;101306.00;;;;2078294;28;20249;-50
2022/03/10 03:54:19;;;;;;;9.50;8.70;;;;;19.90;101295.00;;;;2078409;28;20301;-49
2022/03/10 03:55:19;;;;;;;8.87;8.07;;;;;19.90;101295.00;;;;2078045;28;20209;-50
2022/03/10 03:56:20;;;;;;;10.23;9.33;;;;;19.90;101304.00;;;;2078354;28;20291;-50
2022/03/10 03:57:20;;;;;;;9.30;8.50;;;;;19.90;101297.00;;;;2077904;28;20210;-50
2022/03/10 03:58:20;;;;;;;9.50;8.70;;;;;20.00;101299.00;;;;2078226;28;20289;-49
2022/03/10 03:59:21;;;;;;;9.13;8.30;;;;;19.90;101306.00;;;;2077843;28;20201;-50
2022/03/10 04:00:21;;;;;;;10.40;9.50;;;;;19.90;101298.00;;;;2078038;28;20236;-49
2022/03/10 04:01:21;;;;;;;9.53;8.63;;;;;19.90;101312.00;;;;2078652;28;20209;-49
2022/03/10 04:02:22;;;;;;;9.67;8.77;;;;;19.90;101308.00;;;;2078958;28;20608;-50
2022/03/10 04:03:22;;;;;;;9.90;9.00;;;;;19.90;101307.00;;;;2078722;28;20577;-50
2022/03/10 04:04:22;;;;;;;10.10;9.00;;;;;19.90;101313.00;;;;2078839;28;20727;-50
2022/03/10 04:05:23;;;;;;;9.97;8.50;;;;;19.90;101308.00;;;;2078305;28;20262;-49
2022/03/10 04:06:24;;;;;;;9.20;8.30;;;;;19.90;101307.00;;;;2078858;28;20209;-49
2022/03/10 04:07:24;;;;;;;9.65;8.85;;;;;19.90;101311.00;;;;2078268;28;20217;-50
2022/03/10 04:08:25;;;;;;;9.07;8.27;;;;;19.90;101306.00;;;;2076670;28;20302;-50
2022/03/10 04:09:25;;;;;;;9.77;8.97;;;;;19.90;101307.00;;;;2070513;28;20210;-49
2022/03/10 04:10:25;;;;;;;9.33;8.53;;;;;19.90;101297.00;;;;2068649;28;20213;-50
2022/03/10 04:11:26;;;;;;;9.63;8.73;;;;;19.90;101308.00;;;;2070700;28;20210;-50
2022/03/10 04:12:26;;;;;;;10.60;9.60;;;;;19.90;101308.00;;;;2072935;28;20233;-50
2022/03/10 04:13:26;;;;;;;10.10;9.13;;;;;19.90;101306.00;;;;2078606;28;20355;-49
2022/03/10 04:14:27;;;;;;;9.20;8.40;;;;;19.90;101303.00;;;;2078098;28;20244;-50
2022/03/10 04:15:27;;;;;;;9.40;8.60;;;;;19.90;101294.00;;;;2078069;28;20210;-49
2022/03/10 04:16:27;;;;;;;9.43;8.23;;;;;19.90;101306.00;;;;2078861;28;20214;-50
2022/03/10 04:17:28;;;;;;;10.00;8.23;;;;;19.90;101295.00;;;;2078204;28;25486;-50
2022/03/10 04:18:29;;;;;;;9.53;8.73;;;;;19.80;101303.00;;;;2078628;28;20228;-49
2022/03/10 04:19:29;;;;;;;9.90;9.00;;;;;19.90;101305.00;;;;2078571;28;20225;-50
2022/03/10 04:20:30;;;;;;;9.83;8.93;;;;;19.90;101305.00;;;;2073501;28;20215;-49
2022/03/10 04:21:31;;;;;;;9.63;8.83;;;;;19.90;101302.00;;;;2070662;28;20281;-49
2022/03/10 04:22:31;;;;;;;9.70;8.70;;;;;19.80;101309.00;;;;2074252;28;20217;-49
2022/03/10 04:23:32;;;;;;;9.73;8.83;;;;;19.80;101303.00;;;;2078597;28;20455;-50
2022/03/10 04:24:32;;;;;;;9.70;8.80;;;;;19.80;101302.00;;;;2078708;28;20226;-49
2022/03/10 04:25:32;;;;;;;10.03;9.10;;;;;19.80;101300.00;;;;2078498;28;20210;-49
2022/03/10 04:26:33;;;;;;;9.27;8.37;;;;;19.90;101302.00;;;;2078594;28;20213;-49
2022/03/10 04:27:33;;;;;;;8.90;8.10;;;;;19.90;101314.00;;;;2078641;28;20217;-49
2022/03/10 04:28:33;;;;;;;9.70;8.80;;;;;19.80;101305.00;;;;2076937;28;20237;-49
2022/03/10 04:29:34;;;;;;;9.47;8.57;;;;;19.80;101300.00;;;;2069433;28;20214;-49
2022/03/10 04:30:34;;;;;;;10.00;9.10;;;;;19.80;101300.00;;;;2069870;28;20217;-50
2022/03/10 04:31:34;;;;;;;8.80;8.00;;;;;19.80;101306.00;;;;2069898;28;20311;-50
2022/03/10 04:32:53;;;;;;;9.83;8.93;;;;;19.80;101308.00;;;;2070022;28;21009;-50
2022/03/10 04:33:53;;;;;;;8.90;8.10;;;;;19.80;101306.00;;;;2077029;28;21715;-50
2022/03/10 04:34:54;;;;;;;9.40;8.60;;;;;19.80;101312.00;;;;2077850;28;20233;-49
2022/03/10 04:35:56;;;;;;;8.97;8.17;;;;;19.80;101312.00;;;;2077510;28;20213;-50
2022/03/10 04:36:57;;;;;;;9.73;8.82;;;;;19.80;101300.00;;;;2077063;28;20217;-49
2022/03/10 04:37:57;;;;;;;9.23;8.43;;;;;19.80;101309.00;;;;2078174;28;20312;-49
2022/03/10 04:38:57;;;;;;;10.63;9.43;;;;;19.80;101306.00;;;;2077628;28;20740;-50
2022/03/10 04:39:58;;;;;;;8.90;8.10;;;;;19.80;101298.00;;;;2078430;28;20973;-49
2022/03/10 04:40:58;;;;;;;9.90;9.00;;;;;19.80;101304.00;;;;2078657;28;20298;-49
2022/03/10 04:41:59;;;;;;;10.10;9.10;;;;;19.80;101269.00;;;;2078678;28;20875;-49
2022/03/10 04:42:59;;;;;;;9.07;8.27;;;;;19.80;101307.00;;;;2078149;28;20633;-49
2022/03/10 04:44:00;;;;;;;8.33;7.63;;;;;19.80;101309.00;;;;2078644;28;20577;-50
2022/03/10 04:45:01;;;;;;;9.17;8.30;;;;;19.80;101307.00;;;;2078595;28;20558;-49
2022/03/10 04:46:03;;;;;;;9.07;8.27;;;;;19.80;101310.00;;;;2073661;28;20446;-49
2022/03/10 04:47:04;;;;;;;9.68;8.68;;;;;19.80;101315.00;;;;2069674;28;20821;-49
2022/03/10 04:48:06;;;;;;;8.48;7.68;;;;;19.80;101306.00;;;;2070344;28;20304;-49
2022/03/10 04:49:06;;;;;;;10.10;9.30;;;;;19.80;101303.00;;;;2070552;28;21038;-50
2022/03/10 04:50:08;;;;;;;9.30;8.40;;;;;19.70;101302.00;;;;2070373;28;20221;-49
2022/03/10 04:51:08;;;;;;;8.68;7.88;;;;;19.70;101309.00;;;;2070509;28;20641;-50
2022/03/10 04:52:09;;;;;;;9.50;8.70;;;;;19.80;101311.00;;;;2070679;28;20210;-50
2022/03/10 04:53:09;;;;;;;8.97;8.10;;;;;19.70;101307.00;;;;2070728;28;20584;-50
2022/03/10 04:54:09;;;;;;;9.50;8.60;;;;;19.70;101305.00;;;;2070380;28;20236;-49
2022/03/10 04:55:10;;;;;;;9.33;8.43;;;;;19.70;101318.00;;;;2075585;28;20210;-50
2022/03/10 04:56:10;;;;;;;9.70;8.90;;;;;19.80;101309.00;;;;2078035;28;20700;-50
2022/03/10 04:57:11;;;;;;;9.60;8.70;;;;;19.80;101308.00;;;;2078436;28;20213;-50
2022/03/10 04:58:11;;;;;;;9.80;9.00;;;;;19.80;101301.00;;;;2077862;28;20218;-49
2022/03/10 04:59:11;;;;;;;8.23;7.47;;;;;19.70;101306.00;;;;2077703;28;20237;-50
2022/03/10 05:00:14;;;;;;;9.53;8.63;;;;;19.70;101316.00;;;;2078215;28;20272;-50
2022/03/10 05:01:14;;;;;;;8.98;8.18;;;;;19.70;101305.00;;;;2078836;28;20647;-50
2022/03/10 05:02:14;;;;;;;9.07;8.17;;;;;19.70;101306.00;;;;2078310;28;20221;-50
2022/03/10 05:03:15;;;;;;;9.00;8.27;;;;;19.70;101307.00;;;;2077314;28;20213;-50
2022/03/10 05:04:15;;;;;;;10.90;8.43;;;;;19.70;101307.00;;;;2076444;28;20217;-49
2022/03/10 05:05:17;;;;;;;8.93;8.13;;;;;19.70;101311.00;;;;2071963;28;20225;-49